Time;durP1;ratioP1;P1;durP2;ratioP2;P2;SDS_P1;SDS_P2;PMS_P1;PMS_P2;Temp;Humidity;BMP_temperature;BMP_pressure;BME280_temperature;BME280_humidity;BME280_pressure;Samples;Min_cycle;Max_cycle;Signal;HPM_P1;HPM_P2
2022/09/08 00:00:56;;;;;;;5.85;2.20;;;19.10;99.90;;;;;;5022249;28;37238;-77
2022/09/08 00:03:26;;;;;;;11.65;3.00;;;19.20;99.90;;;;;;5022854;28;37278;-78
2022/09/08 00:06:09;;;;;;;8.15;2.85;;;19.00;99.90;;;;;;5025529;28;37265;-78
2022/09/08 00:08:35;;;;;;;;;;;19.00;99.90;;;;;;5019544;28;47293;-78
2022/09/08 00:11:05;;;;;;;9.77;2.40;;;18.90;99.90;;;;;;5024727;28;36806;-78
2022/09/08 00:13:33;;;;;;;13.23;2.83;;;18.80;99.90;;;;;;5022310;28;47867;-78
2022/09/08 00:16:02;;;;;;;7.03;2.20;;;18.80;99.90;;;;;;5037064;28;36691;-79
2022/09/08 00:18:29;;;;;;;12.20;2.83;;;18.80;99.90;;;;;;5046477;28;47563;-78
2022/09/08 00:20:55;;;;;;;7.32;2.22;;;18.80;99.90;;;;;;5042507;28;37834;-78
2022/09/08 00:23:21;;;;;;;12.90;2.70;;;18.80;99.90;;;;;;5042949;28;37142;-78
2022/09/08 00:25:47;;;;;;;11.68;3.00;;;18.90;99.90;;;;;;5044471;28;39803;-78
2022/09/08 00:28:14;;;;;;;7.03;2.50;;;18.90;99.90;;;;;;5040315;28;36849;-77
2022/09/08 00:30:40;;;;;;;9.50;2.75;;;18.90;99.90;;;;;;5057629;28;37344;-78
2022/09/08 00:33:06;;;;;;;8.38;2.63;;;18.90;99.90;;;;;;5038905;28;39127;-78
2022/09/08 00:35:32;;;;;;;9.65;2.72;;;18.80;99.90;;;;;;5056162;28;38689;-78
2022/09/08 00:37:59;;;;;;;12.57;3.28;;;18.80;99.90;;;;;;5041715;28;38324;-79
2022/09/08 00:40:26;;;;;;;5.63;2.40;;;18.80;99.90;;;;;;5055584;28;36905;-78
2022/09/08 00:43:04;;;;;;;7.97;2.90;;;18.70;99.90;;;;;;5038418;28;39329;-78
2022/09/08 00:45:37;;;;;;;8.40;2.67;;;18.70;99.90;;;;;;5032888;28;46970;-78
2022/09/08 00:48:08;;;;;;;7.50;2.78;;;18.70;99.90;;;;;;5043083;28;39547;-77
2022/09/08 00:50:37;;;;;;;10.52;2.85;;;18.70;99.90;;;;;;5030911;28;37563;-78
2022/09/08 00:53:09;;;;;;;7.60;2.40;;;18.70;99.90;;;;;;5052063;28;36659;-78
2022/09/08 00:55:38;;;;;;;9.18;2.35;;;18.70;99.90;;;;;;5028427;28;39103;-78
2022/09/08 00:58:05;;;;;;;11.20;2.92;;;18.70;99.90;;;;;;5052937;28;38640;-78
2022/09/08 01:03:09;;;;;;;13.52;3.25;;;18.70;99.90;;;;;;5316906;22;20045;-78
2022/09/08 01:05:53;;;;;;;6.25;2.45;;;18.60;99.90;;;;;;5044109;28;38637;-78
2022/09/08 01:14:12;;;;;;;8.75;2.33;;;18.70;99.90;;;;;;5052849;28;40204;-78
2022/09/08 01:16:44;;;;;;;9.05;2.70;;;18.70;99.90;;;;;;5032897;28;38048;-78
2022/09/08 01:19:20;;;;;;;8.82;2.38;;;18.70;99.90;;;;;;5054013;28;38262;-78
2022/09/08 01:21:49;;;;;;;10.43;2.80;;;18.70;99.90;;;;;;5032941;28;36474;-78
2022/09/08 01:24:49;;;;;;;5.47;2.00;;;18.80;99.90;;;;;;5052259;28;38899;-78
2022/09/08 01:27:23;;;;;;;7.82;2.30;;;18.80;99.90;;;;;;5031482;28;37349;-78
2022/09/08 01:29:54;;;;;;;5.03;1.60;;;18.80;99.90;;;;;;5050990;28;37911;-78
2022/09/08 01:32:20;;;;;;;4.50;1.60;;;18.80;99.90;;;;;;5029264;28;37086;-79
2022/09/08 01:34:46;;;;;;;6.45;1.60;;;18.80;99.90;;;;;;5028505;28;37751;-79
2022/09/08 01:37:13;;;;;;;4.13;1.50;;;18.80;99.90;;;;;;5030537;28;39944;-78
2022/09/08 01:39:40;;;;;;;6.45;1.80;;;18.80;99.90;;;;;;5047505;28;36523;-79
2022/09/08 01:42:06;;;;;;;5.20;1.60;;;18.70;99.90;;;;;;5052329;28;37005;-79
2022/09/08 01:44:33;;;;;;;4.50;1.35;;;18.70;99.90;;;;;;5049025;28;39063;-78
2022/09/08 01:46:59;;;;;;;5.30;1.42;;;18.70;99.90;;;;;;5031417;28;38318;-80
2022/09/08 01:49:25;;;;;;;3.65;1.25;;;18.70;99.90;;;;;;5028921;28;37033;-79
2022/09/08 01:51:51;;;;;;;5.65;1.33;;;18.80;99.90;;;;;;5027281;28;37371;-79
2022/09/08 01:54:17;;;;;;;5.13;1.65;;;18.70;99.90;;;;;;5059608;28;39942;-79
2022/09/08 01:56:43;;;;;;;8.43;1.95;;;18.70;99.90;;;;;;5051416;28;38398;-79
2022/09/08 01:59:09;;;;;;;4.57;1.52;;;18.70;99.90;;;;;;5049862;28;38040;-79
2022/09/08 02:01:35;;;;;;;7.30;1.50;;;18.70;99.90;;;;;;5028430;28;37385;-79
2022/09/08 02:04:01;;;;;;;7.45;1.58;;;18.70;99.90;;;;;;5031707;28;37390;-79
2022/09/08 02:06:28;;;;;;;4.03;1.20;;;18.60;99.90;;;;;;5036632;28;38936;-78
2022/09/08 02:08:55;;;;;;;3.80;1.13;;;18.70;99.90;;;;;;5055139;28;37637;-79
2022/09/08 02:11:22;;;;;;;7.30;1.20;;;18.60;99.90;;;;;;5046977;28;37446;-79
2022/09/08 02:13:49;;;;;;;4.10;1.13;;;18.60;99.90;;;;;;5056897;28;38794;-80
2022/09/08 02:16:15;;;;;;;6.57;1.30;;;18.60;99.90;;;;;;5048175;28;37191;-79
2022/09/08 02:18:42;;;;;;;6.47;2.05;;;18.60;99.90;;;;;;5047300;28;36539;-79
2022/09/08 02:21:11;;;;;;;6.88;1.52;;;18.60;99.90;;;;;;5035572;28;37456;-79
2022/09/08 02:23:40;;;;;;;7.80;1.38;;;18.60;99.90;;;;;;5042210;28;39733;-77
2022/09/08 02:26:12;;;;;;;6.63;1.85;;;18.60;99.90;;;;;;5039297;28;37482;-79
2022/09/08 02:28:38;;;;;;;4.97;1.45;;;18.50;99.90;;;;;;5044121;28;37005;-78
2022/09/08 02:31:04;;;;;;;7.88;1.60;;;18.50;99.90;;;;;;5067825;28;36757;-78
2022/09/08 02:33:30;;;;;;;6.43;2.13;;;18.50;99.90;;;;;;5056618;28;39669;-79
2022/09/08 02:35:57;;;;;;;3.67;1.25;;;18.50;99.90;;;;;;5051284;28;38723;-78
2022/09/08 02:38:24;;;;;;;7.50;1.58;;;18.50;99.90;;;;;;5055096;28;35588;-79
2022/09/08 02:40:50;;;;;;;6.10;1.90;;;18.50;99.90;;;;;;5052009;28;39593;-79
2022/09/08 02:43:16;;;;;;;4.65;2.22;;;18.40;99.90;;;;;;5032375;28;37690;-79
2022/09/08 02:45:43;;;;;;;6.35;1.70;;;18.40;99.90;;;;;;5030161;28;37372;-80
2022/09/08 02:48:09;;;;;;;4.70;1.75;;;18.40;99.90;;;;;;5046350;28;37677;-80
2022/09/08 02:50:35;;;;;;;5.30;1.60;;;18.30;99.90;;;;;;5033708;28;37336;-79
2022/09/08 02:53:01;;;;;;;8.40;2.15;;;18.30;99.90;;;;;;5035964;28;37792;-78
2022/09/08 02:55:27;;;;;;;4.22;1.60;;;18.30;99.90;;;;;;5034624;28;38790;-79
2022/09/08 02:57:54;;;;;;;3.95;1.33;;;18.30;99.90;;;;;;5054801;28;38445;-79
2022/09/08 03:00:20;;;;;;;6.68;1.80;;;18.30;99.90;;;;;;5031549;28;36062;-79
2022/09/08 03:02:47;;;;;;;5.22;1.48;;;18.20;99.90;;;;;;5032701;28;36306;-79
2022/09/08 03:05:13;;;;;;;7.75;1.95;;;18.10;99.90;;;;;;5032148;28;37450;-79
2022/09/08 03:07:40;;;;;;;7.07;2.00;;;18.00;99.90;;;;;;5053662;28;37876;-78
2022/09/08 03:10:07;;;;;;;7.40;1.92;;;18.00;99.90;;;;;;5033081;28;36172;-78
2022/09/08 03:12:33;;;;;;;7.28;2.08;;;18.00;99.90;;;;;;5033424;28;37934;-79
2022/09/08 03:15:00;;;;;;;12.27;2.60;;;18.00;99.90;;;;;;5052695;28;38454;-78
2022/09/08 03:17:26;;;;;;;8.85;2.90;;;17.90;99.90;;;;;;5050608;28;38058;-79
2022/09/08 03:19:54;;;;;;;10.85;3.55;;;17.90;99.90;;;;;;5052253;28;36210;-79
2022/09/08 03:22:20;;;;;;;12.50;2.85;;;17.90;99.90;;;;;;5042713;28;37893;-78
2022/09/08 03:24:46;;;;;;;11.40;2.92;;;17.80;99.90;;;;;;5043909;28;37710;-79
2022/09/08 03:27:13;;;;;;;8.88;2.83;;;17.80;99.90;;;;;;5059910;28;37549;-78
2022/09/08 03:29:39;;;;;;;10.88;3.92;;;17.80;99.90;;;;;;5035034;28;37586;-79
2022/09/08 03:32:05;;;;;;;8.65;3.05;;;17.80;99.90;;;;;;5048479;28;39105;-78
2022/09/08 03:34:31;;;;;;;8.07;3.75;;;17.80;99.90;;;;;;5047230;28;37487;-79
2022/09/08 03:36:58;;;;;;;8.18;3.53;;;17.70;99.90;;;;;;5049751;28;37905;-79
2022/09/08 03:39:24;;;;;;;9.55;3.80;;;17.70;99.90;;;;;;5032213;28;36267;-78
2022/09/08 03:41:50;;;;;;;6.85;3.88;;;17.70;99.90;;;;;;5032364;28;37746;-79
2022/09/08 03:44:16;;;;;;;6.95;3.40;;;17.70;99.90;;;;;;5030640;28;38102;-78
2022/09/08 03:46:42;;;;;;;12.18;4.60;;;17.70;99.90;;;;;;5048849;28;38154;-79
2022/09/08 03:49:08;;;;;;;12.50;3.83;;;17.60;99.90;;;;;;5052686;28;38327;-78
2022/09/08 03:51:34;;;;;;;7.05;3.40;;;17.60;99.90;;;;;;5032496;28;37657;-79
2022/09/08 03:56:48;;;;;;;10.80;3.80;;;17.60;99.90;;;;;;5043516;28;49344;-79
2022/09/08 03:59:14;;;;;;;9.10;4.05;;;17.60;99.90;;;;;;5032968;28;35808;-79
2022/09/08 04:01:41;;;;;;;7.22;3.88;;;17.50;99.90;;;;;;5030575;28;38785;-79
2022/09/08 04:04:07;;;;;;;11.00;4.00;;;17.50;99.90;;;;;;5050304;28;38514;-79
2022/09/08 04:06:34;;;;;;;11.20;3.90;;;17.50;99.90;;;;;;5061328;28;39118;-79
2022/09/08 04:09:00;;;;;;;8.82;3.85;;;17.40;99.90;;;;;;5048040;28;39876;-79
2022/09/08 04:11:26;;;;;;;9.20;3.28;;;17.40;99.90;;;;;;5064956;28;39955;-80
2022/09/08 04:13:52;;;;;;;9.50;3.55;;;17.40;99.90;;;;;;5043037;28;37148;-78
2022/09/08 04:16:18;;;;;;;7.57;3.40;;;17.40;99.90;;;;;;5052252;28;38227;-79
2022/09/08 04:18:45;;;;;;;8.50;3.75;;;17.30;99.90;;;;;;5069978;28;37115;-78
2022/09/08 04:21:11;;;;;;;7.50;3.35;;;17.30;99.90;;;;;;5073948;28;37567;-77
2022/09/08 04:23:38;;;;;;;10.65;3.70;;;17.30;99.90;;;;;;5060829;28;38322;-77
2022/09/08 04:26:15;;;;;;;7.03;3.35;;;17.20;99.90;;;;;;5054083;28;36681;-78
2022/09/08 04:28:41;;;;;;;11.07;3.80;;;17.30;99.90;;;;;;5065596;28;36907;-79
2022/09/08 04:31:14;;;;;;;9.18;4.00;;;17.20;99.90;;;;;;5063675;28;39588;-79
2022/09/08 04:33:40;;;;;;;13.15;4.00;;;17.20;99.90;;;;;;5044102;28;37573;-78
2022/09/08 04:36:08;;;;;;;8.13;3.33;;;17.20;99.90;;;;;;5052133;28;36747;-78
2022/09/08 04:38:34;;;;;;;9.63;3.92;;;17.20;99.90;;;;;;5079245;28;37992;-78
2022/09/08 04:41:09;;;;;;;8.00;3.85;;;17.20;99.90;;;;;;5042593;28;37795;-79
2022/09/08 04:43:36;;;;;;;5.07;3.13;;;17.20;99.90;;;;;;5033250;28;47137;-78
2022/09/08 04:46:07;;;;;;;6.78;3.67;;;17.20;99.90;;;;;;5036619;28;36792;-79
2022/09/08 04:48:35;;;;;;;7.50;4.68;;;17.20;99.90;;;;;;5047265;28;37014;-77
2022/09/08 04:51:02;;;;;;;5.30;4.10;;;17.20;99.90;;;;;;5049459;28;37938;-76
2022/09/08 04:53:30;;;;;;;10.73;5.90;;;17.10;99.90;;;;;;5052181;28;48687;-79
2022/09/08 04:55:57;;;;;;;10.05;5.25;;;17.00;99.90;;;;;;5036763;28;38314;-81
2022/09/08 04:58:23;;;;;;;8.63;5.78;;;17.00;99.90;;;;;;5055085;28;36643;-79
2022/09/08 05:00:50;;;;;;;12.55;6.80;;;16.90;99.90;;;;;;5036750;28;37483;-79
2022/09/08 05:03:16;;;;;;;7.88;5.95;;;16.90;99.90;;;;;;5037108;28;37501;-78
2022/09/08 05:05:46;;;;;;;12.57;8.15;;;16.90;99.90;;;;;;5050874;28;37163;-78
2022/09/08 05:08:12;;;;;;;10.23;8.30;;;16.80;99.90;;;;;;5045210;28;37136;-78
2022/09/08 05:10:38;;;;;;;11.98;9.60;;;16.80;99.90;;;;;;5045630;28;38733;-78
2022/09/08 05:13:04;;;;;;;12.15;9.88;;;16.70;99.90;;;;;;5017617;28;38132;-80
2022/09/08 05:15:30;;;;;;;13.73;10.30;;;16.80;99.90;;;;;;5044093;28;37127;-80
2022/09/08 05:17:56;;;;;;;19.58;14.10;;;16.70;99.90;;;;;;5040609;28;36404;-79
2022/09/08 05:20:22;;;;;;;15.50;11.73;;;16.80;99.90;;;;;;5050913;28;38578;-80
2022/09/08 05:22:48;;;;;;;14.85;12.57;;;16.80;99.90;;;;;;5049514;28;37569;-79
2022/09/08 05:25:15;;;;;;;17.15;13.27;;;16.80;99.90;;;;;;5049125;28;37063;-78
2022/09/08 05:27:41;;;;;;;17.95;14.90;;;16.80;99.90;;;;;;5047610;28;36574;-80
2022/09/08 05:30:08;;;;;;;19.67;14.15;;;16.70;99.90;;;;;;5047499;28;39355;-80
2022/09/08 05:32:34;;;;;;;19.85;15.23;;;16.70;99.90;;;;;;5056160;28;38507;-78
2022/09/08 05:35:00;;;;;;;20.38;15.48;;;16.70;99.90;;;;;;5035110;28;39917;-78
2022/09/08 05:37:29;;;;;;;21.23;16.58;;;16.70;99.90;;;;;;5053418;28;47115;-75
2022/09/08 05:39:56;;;;;;;18.92;15.88;;;16.70;99.90;;;;;;5043090;28;38976;-74
2022/09/08 05:42:22;;;;;;;21.38;17.08;;;16.70;99.90;;;;;;5041091;28;38280;-79
2022/09/08 05:44:48;;;;;;;20.70;16.17;;;16.60;99.90;;;;;;5047514;28;37872;-82
2022/09/08 05:47:14;;;;;;;22.02;15.80;;;16.60;99.90;;;;;;5051006;28;37779;-79
2022/09/08 05:49:40;;;;;;;20.23;14.73;;;16.60;99.90;;;;;;5047382;28;37499;-82
2022/09/08 05:52:06;;;;;;;23.75;16.85;;;16.60;99.90;;;;;;5050298;28;38388;-77
2022/09/08 05:54:32;;;;;;;27.38;16.65;;;16.60;99.90;;;;;;5051865;28;37879;-79
2022/09/08 05:56:58;;;;;;;26.55;16.85;;;16.50;99.90;;;;;;5050533;28;36996;-78
2022/09/08 05:59:24;;;;;;;17.95;12.70;;;16.50;99.90;;;;;;5052200;28;37621;-82
2022/09/08 06:01:51;;;;;;;24.58;14.40;;;16.60;99.90;;;;;;5065362;28;39753;-81
2022/09/08 06:04:18;;;;;;;19.58;14.15;;;16.60;99.90;;;;;;5061726;28;37593;-81
2022/09/08 06:06:46;;;;;;;23.20;16.08;;;16.60;99.90;;;;;;5046600;28;37697;-82
2022/09/08 06:09:13;;;;;;;23.80;16.67;;;16.60;99.90;;;;;;5042050;28;37896;-82
2022/09/08 06:11:41;;;;;;;20.63;16.65;;;16.60;99.90;;;;;;5047296;28;37382;-81
2022/09/08 06:14:07;;;;;;;22.73;16.67;;;16.60;99.90;;;;;;5050137;28;37266;-81
2022/09/08 06:19:35;;;;;;;23.27;15.75;;;16.60;99.90;;;;;;5040329;28;20046;-74
2022/09/08 06:22:02;;;;;;;23.70;17.80;;;16.60;99.90;;;;;;5043592;28;38307;-74
2022/09/08 06:24:28;;;;;;;23.45;17.58;;;16.60;99.90;;;;;;5047005;28;38750;-74
2022/09/08 06:27:07;;;;;;;21.50;17.08;;;16.60;99.90;;;;;;5039454;28;37416;-74
2022/09/08 06:29:51;;;;;;;25.60;16.65;;;16.60;99.90;;;;;;5031057;28;47579;-74
2022/09/08 06:32:30;;;;;;;31.23;19.15;;;16.60;99.90;;;;;;5045408;28;38523;-74
2022/09/08 06:35:19;;;;;;;25.25;16.70;;;16.60;99.90;;;;;;5039636;28;38854;-74
2022/09/08 06:37:53;;;;;;;24.90;17.27;;;16.60;99.90;;;;;;5025764;28;47015;-74
2022/09/08 06:40:25;;;;;;;29.15;19.25;;;16.70;99.90;;;;;;5042511;28;39867;-74
2022/09/08 06:42:53;;;;;;;25.40;20.63;;;16.70;99.90;;;;;;5035913;28;39334;-74
2022/09/08 06:45:29;;;;;;;26.52;20.25;;;16.70;99.90;;;;;;5040538;28;39028;-75
2022/09/08 06:47:59;;;;;;;32.95;21.70;;;16.70;99.90;;;;;;5040410;28;37463;-75
2022/09/08 06:50:26;;;;;;;30.02;22.80;;;16.70;99.90;;;;;;5029218;28;39626;-74
2022/09/08 06:52:55;;;;;;;28.98;22.38;;;16.70;99.90;;;;;;5044025;28;38481;-75
2022/09/08 06:55:54;;;;;;;30.08;23.98;;;16.70;99.90;;;;;;5030856;28;38910;-75
2022/09/08 06:58:31;;;;;;;40.05;24.75;;;16.80;99.90;;;;;;5025876;28;39326;-75
2022/09/08 07:01:09;;;;;;;27.77;22.40;;;16.70;99.90;;;;;;5031794;28;39661;-75
2022/09/08 07:03:43;;;;;;;30.80;22.73;;;16.80;99.90;;;;;;5042578;28;48596;-75
2022/09/08 07:06:10;;;;;;;33.10;24.33;;;16.80;99.90;;;;;;5049745;28;36904;-76
2022/09/08 07:08:48;;;;;;;35.80;25.10;;;16.80;99.90;;;;;;5052027;28;37388;-79
2022/09/08 07:11:29;;;;;;;31.25;24.60;;;16.80;99.90;;;;;;5054607;28;38869;-77
2022/09/08 07:14:11;;;;;;;33.78;24.60;;;16.90;99.90;;;;;;5038436;28;39129;-77
2022/09/08 07:16:43;;;;;;;31.52;21.27;;;16.80;99.90;;;;;;5044552;28;46971;-77
2022/09/08 07:19:34;;;;;;;24.05;17.63;;;16.80;99.90;;;;;;5032295;28;38919;-77
2022/09/08 07:22:31;;;;;;;23.33;16.67;;;16.80;99.90;;;;;;5045449;28;40653;-77
2022/09/08 07:25:09;;;;;;;17.90;11.73;;;16.90;99.90;;;;;;5023638;28;48223;-77
2022/09/08 07:27:37;;;;;;;13.70;9.98;;;16.80;99.90;;;;;;5048945;28;48855;-77
2022/09/08 07:30:05;;;;;;;14.48;9.52;;;16.80;99.90;;;;;;5030718;28;38329;-77
2022/09/08 07:32:34;;;;;;;13.13;8.82;;;16.80;99.90;;;;;;5030052;28;39684;-77
2022/09/08 07:35:05;;;;;;;12.52;8.38;;;16.80;99.90;;;;;;5019431;28;39161;-76
2022/09/08 07:37:43;;;;;;;14.45;10.18;;;16.80;99.90;;;;;;5044192;28;47367;-77
2022/09/08 07:40:18;;;;;;;14.20;9.07;;;16.90;99.90;;;;;;5048276;28;37121;-77
2022/09/08 07:42:50;;;;;;;15.90;9.07;;;16.80;99.90;;;;;;5043941;28;39236;-78
2022/09/08 07:45:16;;;;;;;;;;;16.80;99.90;;;;;;5033226;28;38617;-77
2022/09/08 07:48:15;;;;;;;12.25;9.48;;;16.80;99.90;;;;;;5049468;28;38336;-77
2022/09/08 07:50:54;;;;;;;13.38;8.60;;;16.90;99.90;;;;;;5044482;28;47312;-76
2022/09/08 07:53:47;;;;;;;14.07;9.35;;;16.90;99.90;;;;;;5027645;28;39788;-76
2022/09/08 07:56:30;;;;;;;12.02;8.55;;;16.90;99.90;;;;;;5039630;28;39818;-76
2022/09/08 07:58:59;;;;;;;15.73;8.88;;;16.90;99.90;;;;;;5051997;28;37983;-77
2022/09/08 08:01:49;;;;;;;12.32;10.18;;;17.00;99.90;;;;;;5042265;28;38891;-77
2022/09/08 08:04:30;;;;;;;13.55;9.48;;;17.10;99.90;;;;;;4998141;28;39385;-76
2022/09/08 08:07:00;;;;;;;13.48;9.75;;;17.20;99.90;;;;;;5045067;28;39055;-76
2022/09/08 08:09:42;;;;;;;11.38;9.18;;;17.40;99.90;;;;;;5046963;28;38439;-76
2022/09/08 08:12:59;;;;;;;12.00;8.38;;;17.50;99.90;;;;;;5048500;28;37942;-76
2022/09/08 08:15:47;;;;;;;11.57;7.70;;;17.50;99.90;;;;;;5003940;28;39745;-77
2022/09/08 08:18:37;;;;;;;15.05;6.90;;;17.60;99.90;;;;;;5035119;28;39691;-76
2022/09/08 08:21:16;;;;;;;11.60;7.10;;;17.50;99.90;;;;;;5047441;28;37964;-76
2022/09/08 08:24:09;;;;;;;11.07;6.70;;;17.50;99.90;;;;;;5024619;28;36350;-76
2022/09/08 08:26:53;;;;;;;9.07;5.95;;;17.70;99.90;;;;;;5025071;28;48794;-77
2022/09/08 08:29:26;;;;;;;10.63;5.70;;;17.60;99.90;;;;;;5049250;28;40101;-77
2022/09/08 08:32:05;;;;;;;8.25;4.68;;;17.60;99.90;;;;;;5034765;28;39448;-76
2022/09/08 08:34:46;;;;;;;10.70;4.93;;;17.80;99.90;;;;;;5050401;28;46891;-76
2022/09/08 08:37:18;;;;;;;7.25;3.67;;;17.70;99.90;;;;;;5050340;28;40153;-76
2022/09/08 08:39:45;;;;;;;;;;;17.70;99.90;;;;;;5050507;28;38387;-76
2022/09/08 08:42:44;;;;;;;7.68;3.00;;;17.60;99.90;;;;;;5044098;28;39242;-76
2022/09/08 08:45:25;;;;;;;7.85;2.92;;;17.70;99.90;;;;;;5048720;28;37562;-76
2022/09/08 08:48:14;;;;;;;7.07;2.58;;;17.60;99.90;;;;;;5034188;28;39721;-76
2022/09/08 08:51:29;;;;;;;6.20;1.80;;;17.60;99.90;;;;;;5053532;28;48833;-76
2022/09/08 08:54:21;;;;;;;7.78;1.67;;;17.70;99.90;;;;;;4973005;28;47070;-76
2022/09/08 08:57:02;;;;;;;6.22;1.73;;;18.00;99.90;;;;;;5045372;28;48882;-76
2022/09/08 08:59:47;;;;;;;6.75;1.75;;;18.30;99.90;;;;;;5050921;28;48759;-76
2022/09/08 09:02:28;;;;;;;6.47;1.60;;;18.60;99.90;;;;;;5053416;28;39176;-76
2022/09/08 09:05:12;;;;;;;5.20;1.58;;;18.70;99.90;;;;;;5041741;28;38718;-75
2022/09/08 09:07:41;;;;;;;6.97;2.25;;;19.00;99.90;;;;;;5052189;28;48590;-76
2022/09/08 09:10:35;;;;;;;6.35;2.05;;;18.90;99.90;;;;;;5062238;28;39895;-76
2022/09/08 09:13:23;;;;;;;6.60;2.15;;;18.90;99.90;;;;;;5057570;28;39114;-76
2022/09/08 09:16:08;;;;;;;5.80;2.20;;;18.80;99.90;;;;;;5035282;28;38886;-76
2022/09/08 09:19:09;;;;;;;9.18;2.30;;;18.80;99.90;;;;;;5050659;28;48927;-77
2022/09/08 09:21:38;;;;;;;6.38;1.90;;;18.80;99.90;;;;;;5022092;28;47242;-75
2022/09/08 09:24:18;;;;;;;7.50;2.00;;;18.90;99.90;;;;;;5052522;28;39406;-75
2022/09/08 09:26:50;;;;;;;5.93;2.40;;;19.00;99.90;;;;;;5050554;28;38465;-76
2022/09/08 09:29:25;;;;;;;6.72;2.08;;;18.70;99.90;;;;;;5052305;28;38769;-76
2022/09/08 09:32:20;;;;;;;5.60;1.80;;;18.80;99.90;;;;;;5052733;28;38977;-76
2022/09/08 09:35:02;;;;;;;9.27;2.17;;;18.80;99.90;;;;;;5031337;28;48079;-76
2022/09/08 09:37:57;;;;;;;5.70;1.58;;;19.00;99.90;;;;;;5032378;28;47093;-76
2022/09/08 09:40:48;;;;;;;7.88;2.13;;;19.10;99.90;;;;;;5013956;28;37621;-76
2022/09/08 09:43:41;;;;;;;6.38;1.35;;;19.30;99.90;;;;;;5044376;28;39093;-75
2022/09/08 09:46:25;;;;;;;7.40;1.67;;;19.30;99.90;;;;;;5052733;28;38360;-76
2022/09/08 09:48:51;;;;;;;3.42;1.40;;;19.50;99.90;;;;;;5035187;28;37332;-75
2022/09/08 09:51:38;;;;;;;9.50;1.85;;;19.40;99.90;;;;;;5050455;28;37951;-77
2022/09/08 09:54:45;;;;;;;6.65;1.85;;;19.50;99.90;;;;;;5051022;28;40474;-76
2022/09/08 09:57:46;;;;;;;5.82;1.27;;;19.70;99.90;;;;;;4959839;28;37309;-76
2022/09/08 10:00:25;;;;;;;9.35;1.70;;;19.80;99.90;;;;;;5043743;28;39611;-76
2022/09/08 10:03:12;;;;;;;6.60;1.67;;;20.00;99.90;;;;;;5033575;28;37341;-77
2022/09/08 10:06:17;;;;;;;5.47;1.30;;;19.70;99.90;;;;;;5033601;28;46387;-75
2022/09/08 10:09:03;;;;;;;8.90;1.90;;;20.20;99.90;;;;;;5033496;28;47005;-76
2022/09/08 10:12:01;;;;;;;5.57;1.63;;;20.20;99.90;;;;;;5050917;28;48652;-76
2022/09/08 10:15:04;;;;;;;7.28;1.75;;;20.00;99.90;;;;;;5033808;28;37251;-76
2022/09/08 10:17:48;;;;;;;9.82;2.13;;;19.80;99.90;;;;;;5054449;28;48583;-75
2022/09/08 10:20:23;;;;;;;8.32;1.60;;;20.00;99.90;;;;;;5038232;28;36872;-76
2022/09/08 10:22:55;;;;;;;9.30;1.77;;;20.20;99.90;;;;;;5033905;28;38924;-75
2022/09/08 10:25:36;;;;;;;7.88;1.70;;;20.30;99.90;;;;;;5040102;28;39467;-75
2022/09/08 10:28:28;;;;;;;8.18;1.92;;;20.50;99.90;;;;;;5045911;28;40536;-76
2022/09/08 10:31:15;;;;;;;12.98;1.90;;;20.40;99.90;;;;;;5045674;28;39149;-76
2022/09/08 10:34:12;;;;;;;7.85;1.80;;;20.40;99.90;;;;;;5052871;28;47252;-76
2022/09/08 10:36:56;;;;;;;8.32;2.42;;;20.10;99.90;;;;;;5051276;28;48757;-75
2022/09/08 10:39:39;;;;;;;5.85;1.98;;;19.70;99.90;;;;;;5030354;28;40573;-76
2022/09/08 10:42:26;;;;;;;5.75;1.77;;;19.50;99.90;;;;;;5050991;28;38632;-76
2022/09/08 10:45:27;;;;;;;8.20;2.28;;;19.30;99.90;;;;;;5045583;28;38505;-76
2022/09/08 10:48:17;;;;;;;9.55;2.35;;;19.30;99.90;;;;;;5040485;28;48041;-76
2022/09/08 10:50:51;;;;;;;8.48;2.13;;;19.40;99.90;;;;;;5053236;28;49076;-76
2022/09/08 10:53:39;;;;;;;9.30;2.08;;;19.50;99.90;;;;;;5047447;28;38853;-77
2022/09/08 10:56:21;;;;;;;9.55;2.20;;;19.70;99.90;;;;;;5026243;28;38543;-77
2022/09/08 10:59:11;;;;;;;8.20;1.80;;;19.80;99.90;;;;;;5049304;28;37838;-77
2022/09/08 11:02:12;;;;;;;8.65;1.70;;;20.20;99.90;;;;;;5051280;28;47026;-77
2022/09/08 11:04:57;;;;;;;8.90;1.90;;;20.50;99.90;;;;;;5033965;28;47186;-77
2022/09/08 11:08:00;;;;;;;6.45;1.73;;;20.80;99.90;;;;;;5028897;28;37693;-77
2022/09/08 11:10:46;;;;;;;10.73;1.88;;;20.70;99.90;;;;;;5026486;28;37840;-77
2022/09/08 11:13:33;;;;;;;6.15;1.55;;;20.50;99.90;;;;;;5045889;28;37774;-77
2022/09/08 11:16:18;;;;;;;8.00;2.10;;;20.40;99.90;;;;;;5049707;28;37924;-77
2022/09/08 11:18:44;;;;;;;6.97;1.67;;;20.40;99.90;;;;;;5048259;28;48688;-76
2022/09/08 11:21:21;;;;;;;8.07;1.83;;;20.30;99.90;;;;;;5049971;28;37195;-78
2022/09/08 11:24:12;;;;;;;7.25;1.45;;;20.10;99.90;;;;;;5053784;28;40382;-77
2022/09/08 11:27:02;;;;;;;7.95;1.42;;;20.40;99.90;;;;;;5039250;28;47222;-77
2022/09/08 11:29:35;;;;;;;7.15;1.48;;;20.40;99.90;;;;;;5050383;28;48725;-78
2022/09/08 11:32:07;;;;;;;6.85;1.45;;;20.70;99.90;;;;;;5032889;28;37981;-78
2022/09/08 11:35:07;;;;;;;8.60;1.83;;;21.20;99.90;;;;;;5033482;28;37988;-78
2022/09/08 11:37:58;;;;;;;7.25;1.90;;;21.90;99.90;;;;;;5032899;28;47145;-76
2022/09/08 11:40:45;;;;;;;7.05;1.42;;;22.00;99.90;;;;;;5041197;28;40014;-76
2022/09/08 11:43:36;;;;;;;6.40;1.80;;;21.90;99.90;;;;;;5050842;28;38310;-76
2022/09/08 11:46:16;;;;;;;6.85;2.10;;;21.50;99.90;;;;;;5058484;28;37814;-77
2022/09/08 11:49:04;;;;;;;6.68;1.48;;;21.30;99.90;;;;;;5030471;28;37151;-77
2022/09/08 11:52:06;;;;;;;8.05;1.80;;;21.50;99.90;;;;;;5050150;28;49167;-78
2022/09/08 11:54:32;;;;;;;5.28;1.05;;;21.70;99.90;;;;;;5004666;28;47549;-76
2022/09/08 11:57:16;;;;;;;6.88;1.58;;;21.90;99.90;;;;;;5052589;28;39402;-77
2022/09/08 12:00:15;;;;;;;6.35;1.25;;;22.10;99.90;;;;;;5059086;28;46677;-78
2022/09/08 12:02:47;;;;;;;9.05;2.10;;;22.20;99.90;;;;;;5044925;28;47214;-77
2022/09/08 12:05:28;;;;;;;6.95;1.65;;;21.80;99.90;;;;;;5051622;28;38219;-77
2022/09/08 12:07:55;;;;;;;8.23;1.70;;;21.70;99.90;;;;;;5024248;28;37483;-77
2022/09/08 12:10:38;;;;;;;6.38;1.80;;;21.70;99.90;;;;;;5030197;28;39512;-77
2022/09/08 12:13:23;;;;;;;5.90;1.73;;;21.60;99.90;;;;;;5032083;28;39705;-77
2022/09/08 12:16:22;;;;;;;7.40;1.60;;;21.40;99.90;;;;;;5051652;28;36021;-77
2022/09/08 12:19:14;;;;;;;6.07;1.63;;;21.60;99.90;;;;;;5045700;28;48456;-78
2022/09/08 12:22:07;;;;;;;10.55;1.67;;;22.40;99.90;;;;;;5048259;28;47112;-78
2022/09/08 12:24:53;;;;;;;13.10;2.05;;;21.80;99.90;;;;;;5030934;28;46911;-78
2022/09/08 12:27:47;;;;;;;9.73;1.88;;;21.90;99.90;;;;;;5042025;28;36506;-77
2022/09/08 12:30:21;;;;;;;8.93;1.70;;;22.20;99.90;;;;;;5035511;28;39284;-78
2022/09/08 12:32:51;;;;;;;10.73;1.92;;;22.30;99.90;;;;;;5051200;28;40106;-78
2022/09/08 12:35:22;;;;;;;6.47;2.03;;;22.50;99.90;;;;;;5050413;28;38583;-78
2022/09/08 12:38:18;;;;;;;11.07;2.00;;;22.10;99.90;;;;;;5047473;28;38072;-78
2022/09/08 12:41:22;;;;;;;9.23;2.97;;;22.00;99.90;;;;;;5049509;28;46297;-79
2022/09/08 12:43:49;;;;;;;11.20;1.83;;;21.80;99.90;;;;;;5049724;28;48959;-78
2022/09/08 12:46:27;;;;;;;7.70;2.10;;;21.90;99.90;;;;;;5042389;28;38170;-77
2022/09/08 12:49:26;;;;;;;5.03;1.25;;;21.90;99.90;;;;;;5045758;28;37042;-78
2022/09/08 12:52:08;;;;;;;8.73;1.65;;;22.10;99.90;;;;;;5039638;28;46942;-77
2022/09/08 12:54:43;;;;;;;5.65;1.45;;;22.10;99.90;;;;;;5050420;28;48552;-78
2022/09/08 12:57:43;;;;;;;6.35;1.95;;;22.10;99.90;;;;;;5054974;28;39663;-78
2022/09/08 13:00:11;;;;;;;7.53;1.88;;;21.60;99.90;;;;;;5051912;28;38147;-77
2022/09/08 13:02:46;;;;;;;6.05;1.80;;;21.40;99.90;;;;;;5032327;28;40490;-77
2022/09/08 13:05:30;;;;;;;8.13;1.65;;;21.50;99.90;;;;;;5048172;28;37052;-77
2022/09/08 13:08:21;;;;;;;7.90;1.85;;;21.60;99.90;;;;;;5045224;28;38576;-77
2022/09/08 13:10:51;;;;;;;7.43;1.40;;;21.90;99.90;;;;;;5048437;28;48209;-76
2022/09/08 13:13:42;;;;;;;6.15;1.48;;;22.10;99.90;;;;;;5038429;28;39481;-78
2022/09/08 13:16:15;;;;;;;7.00;1.75;;;22.50;99.90;;;;;;5037357;28;38518;-77
2022/09/08 13:19:15;;;;;;;6.40;1.63;;;22.70;99.90;;;;;;5036932;28;38462;-76
2022/09/08 13:22:06;;;;;;;6.75;1.70;;;22.90;99.90;;;;;;5042727;28;47216;-78
2022/09/08 13:24:48;;;;;;;7.57;1.60;;;23.00;99.90;;;;;;5033073;28;47402;-77
2022/09/08 13:27:34;;;;;;;5.50;1.40;;;22.70;99.90;;;;;;5051018;28;39821;-77
2022/09/08 13:30:08;;;;;;;5.28;1.30;;;22.20;99.90;;;;;;5053337;28;39245;-78
2022/09/08 13:33:07;;;;;;;11.45;2.50;;;22.10;99.90;;;;;;5033361;28;47261;-77
2022/09/08 13:36:00;;;;;;;11.43;1.40;;;22.20;99.90;;;;;;5030943;28;47584;-77
2022/09/08 13:38:40;;;;;;;7.03;1.73;;;22.40;99.90;;;;;;5029375;28;39299;-77
2022/09/08 13:41:24;;;;;;;8.38;1.50;;;22.50;99.90;;;;;;5052697;28;37738;-77